createdAt,value
2022-10-11T00:02:05.308Z,97688.31
2022-10-11T00:04:31.904Z,97819.34
2022-10-11T00:06:58.536Z,97745.91
2022-10-11T00:09:25.160Z,97481.28
2022-10-11T00:11:55.737Z,97816.81
2022-10-11T00:14:23.981Z,97760.13
2022-10-11T00:16:50.628Z,97714.59
2022-10-11T00:19:17.655Z,97768.91
2022-10-11T00:21:44.403Z,97811.69
2022-10-11T00:24:12.157Z,97800.53
2022-10-11T00:26:41.180Z,97789.16
2022-10-11T00:29:12.557Z,97761.44
2022-10-11T00:31:39.858Z,97759.59
2022-10-11T00:34:06.772Z,97813.47
2022-10-11T00:36:33.487Z,97795.91
2022-10-11T00:39:00.062Z,97725.22
2022-10-11T00:41:26.677Z,97797.31
2022-10-11T00:44:13.011Z,97789.97
2022-10-11T00:46:42.589Z,97686.88
2022-10-11T00:49:19.684Z,97733.06
2022-10-11T00:51:52.454Z,97775.66
2022-10-11T00:54:23.617Z,97783.41
2022-10-11T00:56:55.824Z,97724.84
2022-10-11T00:59:26.512Z,97787.03
2022-10-11T01:01:53.428Z,97773.69
2022-10-11T01:04:20.869Z,97771.69
2022-10-11T01:06:49.461Z,97780.59
2022-10-11T01:09:17.642Z,97631.19
2022-10-11T01:11:45.082Z,97768.69
2022-10-11T01:14:23.839Z,97763.44
2022-10-11T01:17:22.629Z,97762.69
2022-10-11T01:19:55.292Z,97752.63
2022-10-11T01:22:46.482Z,97750.81
2022-10-11T01:25:42.329Z,97737.81
2022-10-11T01:28:21.260Z,97718.00
2022-10-11T01:30:49.010Z,97737.72
2022-10-11T01:33:20.006Z,97736.59
2022-10-11T01:35:52.662Z,97735.91
2022-10-11T01:38:38.001Z,97731.41
2022-10-11T01:41:10.191Z,97676.69
2022-10-11T01:43:39.188Z,97634.16
2022-10-11T01:46:07.850Z,97396.81
2022-10-11T01:48:47.513Z,97683.09
2022-10-11T01:51:14.806Z,97715.31
2022-10-11T01:53:52.635Z,97631.06
2022-10-11T01:57:10.463Z,97722.75
2022-10-11T01:59:58.689Z,97730.13
2022-10-11T02:02:37.233Z,97726.25
2022-10-11T02:05:32.169Z,97720.63
2022-10-11T02:08:28.216Z,97730.31
2022-10-11T02:11:04.546Z,97717.63
2022-10-11T02:13:47.306Z,97638.22
2022-10-11T02:16:20.574Z,97662.34
2022-10-11T02:18:50.378Z,97714.63
2022-10-11T02:21:20.843Z,97599.00
2022-10-11T02:23:57.466Z,97692.13
2022-10-11T02:26:27.638Z,97707.38
2022-10-11T02:28:57.720Z,97690.53
2022-10-11T02:31:25.906Z,97662.53
2022-10-11T02:34:19.943Z,97700.28
2022-10-11T02:36:51.518Z,97695.47
2022-10-11T02:39:25.001Z,97692.97
2022-10-11T02:41:52.729Z,97694.06
2022-10-11T02:44:26.861Z,97698.88
2022-10-11T02:46:54.727Z,97629.06
2022-10-11T02:49:22.170Z,97704.44
2022-10-11T02:51:48.764Z,97672.28
2022-10-11T02:54:15.426Z,97648.69
2022-10-11T02:56:42.026Z,97701.09
2022-10-11T02:59:08.689Z,97651.41
2022-10-11T03:01:35.273Z,97718.63
2022-10-11T03:04:01.950Z,97693.06
2022-10-11T03:06:28.582Z,97647.34
2022-10-11T03:08:55.162Z,97528.41
2022-10-11T03:11:21.784Z,97698.81
2022-10-11T03:13:48.368Z,97696.75
2022-10-11T03:16:15.168Z,97440.81
2022-10-11T03:18:42.049Z,97689.25
2022-10-11T03:21:08.905Z,97582.88
2022-10-11T03:23:35.708Z,97687.66
2022-10-11T03:26:02.752Z,97649.44
2022-10-11T03:28:29.954Z,97682.91
2022-10-11T03:30:56.529Z,97686.47
2022-10-11T03:33:23.224Z,97661.63
2022-10-11T03:35:50.492Z,97639.28
2022-10-11T03:38:20.825Z,97573.31
2022-10-11T03:40:48.129Z,97654.34
2022-10-11T03:43:14.867Z,97684.06
2022-10-11T03:45:44.439Z,97653.03
2022-10-11T03:48:12.088Z,97684.94
2022-10-11T03:50:39.230Z,97670.56
2022-10-11T03:53:06.996Z,97631.13
2022-10-11T03:55:33.743Z,97441.38
2022-10-11T03:58:00.465Z,97561.84
2022-10-11T04:00:27.185Z,97667.78
2022-10-11T04:02:53.867Z,97693.78
2022-10-11T04:05:20.526Z,97682.66
2022-10-11T04:07:47.361Z,97633.41
2022-10-11T04:10:14.321Z,97636.19
2022-10-11T04:12:41.063Z,97613.91
2022-10-11T04:15:08.256Z,97600.97
2022-10-11T04:17:34.816Z,97662.91
2022-10-11T04:20:01.636Z,97676.50
2022-10-11T04:22:28.227Z,97678.09
2022-10-11T04:24:54.764Z,97433.69
2022-10-11T04:27:21.709Z,97624.47
2022-10-11T04:29:48.316Z,97569.78
2022-10-11T04:32:15.016Z,97666.09
2022-10-11T04:34:41.605Z,97650.88
2022-10-11T04:37:08.205Z,97534.53
2022-10-11T04:39:34.759Z,97670.06
2022-10-11T04:42:01.332Z,97520.97
2022-10-11T04:44:28.215Z,97661.69
2022-10-11T04:46:54.801Z,97667.75
2022-10-11T04:49:21.623Z,97659.38
2022-10-11T04:51:48.412Z,97632.84
2022-10-11T04:54:15.126Z,97660.94
2022-10-11T04:56:41.758Z,97487.19
2022-10-11T04:59:08.572Z,97650.88
2022-10-11T05:01:35.460Z,97668.38
2022-10-11T05:04:02.161Z,97670.00
2022-10-11T05:06:28.748Z,97575.94
2022-10-11T05:08:55.438Z,97676.41
2022-10-11T05:11:22.231Z,97678.16
2022-10-11T05:13:49.127Z,97678.19
2022-10-11T05:16:17.900Z,97679.16
2022-10-11T05:18:45.237Z,97520.25
2022-10-11T05:21:18.654Z,97632.56
2022-10-11T05:23:47.586Z,97639.06
2022-10-11T05:26:14.786Z,97682.41
2022-10-11T05:28:41.708Z,97538.00
2022-10-11T05:31:08.526Z,97683.19
2022-10-11T05:33:35.205Z,97673.72
2022-10-11T05:36:02.276Z,97679.25
2022-10-11T05:38:29.136Z,97683.19
2022-10-11T05:41:00.311Z,97684.91
2022-10-11T05:43:28.061Z,97691.44
2022-10-11T05:45:54.942Z,97698.66
2022-10-11T05:48:22.120Z,97670.03
2022-10-11T05:50:48.766Z,97343.97
2022-10-11T05:53:15.399Z,97603.56
2022-10-11T05:55:43.427Z,97528.81
2022-10-11T05:58:14.910Z,97691.13
2022-10-11T06:00:41.561Z,97677.22
2022-10-11T06:03:10.517Z,97684.88
2022-10-11T06:05:37.590Z,97679.72
2022-10-11T06:08:06.106Z,97683.28
2022-10-11T06:10:33.035Z,97621.75
2022-10-11T06:12:59.700Z,97684.22
2022-10-11T06:15:26.540Z,97642.63
2022-10-11T06:17:53.182Z,97691.13
2022-10-11T06:20:19.897Z,97588.97
2022-10-11T06:22:46.454Z,97642.78
2022-10-11T06:25:13.101Z,97595.53
2022-10-11T06:27:39.652Z,97682.06
2022-10-11T06:30:07.453Z,97684.81
2022-10-11T06:32:34.073Z,97554.13
2022-10-11T06:35:00.821Z,97669.94
2022-10-11T06:37:27.428Z,97503.53
2022-10-11T06:39:54.032Z,97662.09
2022-10-11T06:42:20.666Z,97696.16
2022-10-11T06:44:47.214Z,97638.91
2022-10-11T06:47:13.776Z,97700.13
2022-10-11T06:49:40.383Z,97702.94
2022-10-11T06:52:07.140Z,97627.34
2022-10-11T06:54:33.753Z,97585.28
2022-10-11T06:57:00.324Z,97635.31
2022-10-11T06:59:26.910Z,97702.16
2022-10-11T07:01:53.468Z,97598.06
2022-10-11T07:04:20.042Z,97609.84
2022-10-11T07:06:46.672Z,97645.16
2022-10-11T07:09:13.336Z,97682.00
2022-10-11T07:11:39.911Z,97691.25
2022-10-11T07:14:07.992Z,97414.06
2022-10-11T07:16:36.437Z,97653.00
2022-10-11T07:19:05.946Z,97457.06
2022-10-11T07:21:34.424Z,97689.31
2022-10-11T07:24:01.749Z,97695.22
2022-10-11T07:26:32.508Z,97605.66
2022-10-11T07:29:03.913Z,97642.09
2022-10-11T07:31:30.838Z,97623.25
2022-10-11T07:33:57.392Z,97646.91
2022-10-11T07:36:24.215Z,97599.69
2022-10-11T07:38:51.208Z,97574.09
2022-10-11T07:41:18.401Z,97684.47
2022-10-11T07:43:47.043Z,97687.66
2022-10-11T07:46:14.282Z,97694.06
2022-10-11T07:48:41.293Z,97686.97
2022-10-11T07:51:20.337Z,97699.72
2022-10-11T07:53:49.642Z,97694.03
2022-10-11T07:56:19.006Z,97698.91
2022-10-11T07:58:50.549Z,97675.69
2022-10-11T08:01:18.287Z,97440.56
2022-10-11T08:03:44.880Z,97653.34
2022-10-11T08:06:14.861Z,97618.13
2022-10-11T08:08:41.508Z,97694.03
2022-10-11T08:11:08.262Z,97678.31
2022-10-11T08:13:35.459Z,97651.53
2022-10-11T08:16:09.053Z,97393.81
2022-10-11T08:18:35.737Z,97665.09
2022-10-11T08:21:07.035Z,97670.69
2022-10-11T08:23:33.729Z,97670.59
2022-10-11T08:26:00.479Z,97666.34
2022-10-11T08:28:27.130Z,97666.19
2022-10-11T08:30:55.036Z,97665.31
2022-10-11T08:33:23.772Z,97621.31
2022-10-11T08:35:52.587Z,97609.25
2022-10-11T08:38:20.255Z,97629.63
2022-10-11T08:40:58.628Z,97635.16
2022-10-11T08:43:49.695Z,97660.84
2022-10-11T08:46:20.990Z,97658.19
2022-10-11T08:48:51.956Z,97609.00
2022-10-11T08:51:35.467Z,97630.06
2022-10-11T08:54:20.584Z,97562.03
2022-10-11T08:56:47.390Z,97651.56
2022-10-11T08:59:13.910Z,97653.34
2022-10-11T09:01:47.436Z,97620.50
2022-10-11T09:04:16.221Z,97581.69
2022-10-11T09:06:53.446Z,97651.69
2022-10-11T09:09:28.684Z,97642.88
2022-10-11T09:12:20.067Z,97642.75
2022-10-11T09:15:01.849Z,97637.44
2022-10-11T09:17:37.100Z,97620.50
2022-10-11T09:20:22.190Z,97626.50
2022-10-11T09:22:56.974Z,97631.69
2022-10-11T09:25:26.085Z,97277.84
2022-10-11T09:28:30.571Z,97631.75
2022-10-11T09:30:59.205Z,97455.34
2022-10-11T09:33:47.479Z,97553.19
2022-10-11T09:36:32.623Z,97643.78
2022-10-11T09:39:06.768Z,97643.25
2022-10-11T09:41:41.751Z,97591.91
2022-10-11T09:44:12.663Z,97537.44
2022-10-11T09:46:42.389Z,97520.25
2022-10-11T09:49:15.952Z,97646.19
2022-10-11T09:51:49.815Z,97626.63
2022-10-11T09:54:18.188Z,97601.28
2022-10-11T09:56:46.293Z,97631.94
2022-10-11T09:59:32.369Z,97633.25
2022-10-11T10:02:14.497Z,97629.84
2022-10-11T10:05:14.196Z,97617.44
2022-10-11T10:08:05.256Z,97476.38
2022-10-11T10:11:00.030Z,97604.09
2022-10-11T10:13:49.989Z,97612.75
2022-10-11T10:16:37.231Z,97534.34
2022-10-11T10:19:18.196Z,97484.53
2022-10-11T10:21:50.524Z,97541.06
2022-10-11T10:24:34.041Z,97537.06
2022-10-11T10:27:24.926Z,97546.75
2022-10-11T10:30:14.867Z,97530.72
2022-10-11T10:32:53.526Z,97597.00
2022-10-11T10:36:08.273Z,97596.78
2022-10-11T10:38:47.498Z,97591.50
2022-10-11T10:41:18.108Z,97538.91
2022-10-11T10:43:58.797Z,97576.28
2022-10-11T10:46:53.291Z,97617.78
2022-10-11T10:49:52.606Z,97569.66
2022-10-11T10:52:39.829Z,97577.88
2022-10-11T10:55:25.424Z,97576.00
2022-10-11T10:57:57.931Z,97566.59
2022-10-11T11:00:24.892Z,97524.09
2022-10-11T11:03:02.494Z,97572.25
2022-10-11T11:05:37.804Z,97558.94
2022-10-11T11:08:17.349Z,97525.16
2022-10-11T11:11:03.901Z,97528.72
2022-10-11T11:13:41.871Z,97545.34
2022-10-11T11:16:31.768Z,97508.03
2022-10-11T11:19:06.318Z,97550.50
2022-10-11T11:21:56.632Z,97548.94
2022-10-11T11:25:00.323Z,97543.28
2022-10-11T11:27:45.584Z,97538.13
2022-10-11T11:30:18.559Z,97537.22
2022-10-11T11:32:55.094Z,97546.78
2022-10-11T11:35:21.748Z,97536.38
2022-10-11T11:37:57.392Z,97516.25
2022-10-11T11:40:43.623Z,97383.38
2022-10-11T11:43:27.224Z,97519.72
2022-10-11T11:45:59.411Z,97525.81
2022-10-11T11:48:26.890Z,97532.63
2022-10-11T11:51:13.357Z,97526.00
2022-10-11T11:54:06.119Z,97477.03
2022-10-11T11:57:02.571Z,97438.13
2022-10-11T11:59:50.914Z,97521.97
2022-10-11T12:02:29.716Z,97517.44
2022-10-11T12:04:57.089Z,97526.22
2022-10-11T12:07:27.255Z,97470.25
2022-10-11T12:10:15.183Z,97413.66
2022-10-11T12:12:42.152Z,97481.78
2022-10-11T12:15:09.174Z,97517.22
2022-10-11T12:17:57.748Z,97512.50
2022-10-11T12:20:25.860Z,97504.97
2022-10-11T12:22:58.461Z,97479.84
2022-10-11T12:25:28.750Z,97509.84
2022-10-11T12:27:58.433Z,97454.50
2022-10-11T12:30:47.110Z,97508.50
2022-10-11T12:33:32.825Z,97502.59
2022-10-11T12:36:21.975Z,97503.38
2022-10-11T12:39:20.514Z,97500.88
2022-10-11T12:42:06.043Z,97495.25
2022-10-11T12:44:32.781Z,97461.44
2022-10-11T12:47:43.864Z,97492.88
2022-10-11T12:50:22.846Z,97377.81
2022-10-11T12:52:55.438Z,97485.44
2022-10-11T12:55:30.798Z,97488.13
2022-10-11T12:58:38.307Z,97499.97
2022-10-11T13:01:05.230Z,97487.31
2022-10-11T13:03:37.576Z,97484.56
2022-10-11T13:06:20.267Z,97481.25
2022-10-11T13:08:59.025Z,97491.28
2022-10-11T13:11:31.028Z,97352.78
2022-10-11T13:14:01.257Z,97485.13
2022-10-11T13:16:42.088Z,97423.44
2022-10-11T13:19:14.010Z,97397.34
2022-10-11T13:21:40.751Z,97489.28
2022-10-11T13:24:14.597Z,97494.56
2022-10-11T13:26:43.193Z,97436.34
2022-10-11T13:29:16.919Z,97406.63
2022-10-11T13:31:46.769Z,97485.78
2022-10-11T13:34:14.085Z,97444.09
2022-10-11T13:36:41.031Z,97471.41
2022-10-11T13:39:08.359Z,97416.88
2022-10-11T13:41:35.327Z,97457.09
2022-10-11T13:44:03.124Z,97424.25
2022-10-11T13:46:31.455Z,97478.69
2022-10-11T13:49:22.835Z,97473.66
2022-10-11T13:52:01.631Z,97475.94
2022-10-11T13:55:05.972Z,97473.34
2022-10-11T13:57:45.085Z,97473.28
2022-10-11T14:00:14.784Z,97474.56
2022-10-11T14:02:54.740Z,97480.78
2022-10-11T14:05:29.642Z,97483.59
2022-10-11T14:07:58.626Z,97471.75
2022-10-11T14:10:26.018Z,97436.50
2022-10-11T14:13:02.514Z,97461.47
2022-10-11T14:15:37.410Z,97432.03
2022-10-11T14:18:42.948Z,97463.78
2022-10-11T14:21:36.303Z,97465.19
2022-10-11T14:24:06.478Z,97381.47
2022-10-11T14:26:48.255Z,97472.69
2022-10-11T14:29:23.616Z,97410.91
2022-10-11T14:31:51.069Z,97412.81
2022-10-11T14:34:22.536Z,97366.16
2022-10-11T14:36:49.950Z,97434.78
2022-10-11T14:39:22.496Z,97332.34
2022-10-11T14:41:54.475Z,97450.53
2022-10-11T14:44:22.040Z,97401.31
2022-10-11T14:46:50.805Z,97459.34
2022-10-11T14:52:21.085Z,97456.59
2022-10-11T14:54:47.645Z,97455.75
2022-10-11T14:57:14.195Z,97455.66
2022-10-11T14:59:43.773Z,97408.63
2022-10-11T15:02:21.082Z,97399.78
2022-10-11T15:04:47.809Z,97458.72
2022-10-11T15:07:15.894Z,97387.09
2022-10-11T15:09:43.358Z,97458.81
2022-10-11T15:12:10.003Z,97467.22
2022-10-11T15:14:36.735Z,97466.16
2022-10-11T15:17:03.452Z,97464.84
2022-10-11T15:19:30.074Z,97466.81
2022-10-11T15:21:56.784Z,97463.25
2022-10-11T15:24:23.445Z,97364.09
2022-10-11T15:26:50.620Z,97428.28
2022-10-11T15:29:18.207Z,97306.78
2022-10-11T15:31:49.561Z,97435.91
2022-10-11T15:34:16.862Z,97465.47
2022-10-11T15:36:44.203Z,97428.00
2022-10-11T15:39:32.717Z,97470.28
2022-10-11T15:41:59.897Z,97422.59
2022-10-11T15:44:26.643Z,97410.63
2022-10-11T15:46:53.606Z,97468.91
2022-10-11T15:49:20.653Z,97468.22
2022-10-11T15:51:47.273Z,97479.81
2022-10-11T15:54:13.880Z,97478.72
2022-10-11T15:56:40.534Z,97477.56
2022-10-11T15:59:07.176Z,97407.75
2022-10-11T16:01:33.788Z,97487.56
2022-10-11T16:04:00.408Z,97399.84
2022-10-11T16:06:27.871Z,97470.91
2022-10-11T16:08:54.453Z,97442.22
2022-10-11T16:11:21.015Z,97481.22
2022-10-11T16:13:48.894Z,97487.75
2022-10-11T16:16:15.477Z,97479.75
2022-10-11T16:18:42.189Z,97492.31
2022-10-11T16:21:11.171Z,97487.97
2022-10-11T16:23:38.916Z,97490.38
2022-10-11T16:26:09.063Z,97493.59
2022-10-11T16:28:36.359Z,97447.34
2022-10-11T16:31:08.542Z,97496.94
2022-10-11T16:33:38.138Z,97497.13
2022-10-11T16:36:26.968Z,97499.59
2022-10-11T16:38:54.126Z,97506.88
2022-10-11T16:41:20.740Z,97504.44
2022-10-11T16:43:55.387Z,97511.66
2022-10-11T16:46:22.760Z,97331.13
2022-10-11T16:48:49.540Z,97437.38
2022-10-11T16:51:16.349Z,97472.53
2022-10-11T16:53:43.014Z,97515.66
2022-10-11T16:56:18.013Z,97517.31
2022-10-11T16:58:44.998Z,97530.88
2022-10-11T17:01:11.678Z,97487.69
2022-10-11T17:03:38.711Z,97528.44
2022-10-11T17:06:06.231Z,97443.75
2022-10-11T17:08:33.412Z,97514.06
2022-10-11T17:11:00.444Z,97531.63
2022-10-11T17:13:27.785Z,97441.31
2022-10-11T17:15:58.899Z,97477.25
2022-10-11T17:18:26.109Z,97532.44
2022-10-11T17:21:04.573Z,97530.06
2022-10-11T17:23:31.225Z,97530.47
2022-10-11T17:25:57.892Z,97514.09
2022-10-11T17:28:24.601Z,97404.63
2022-10-11T17:30:56.793Z,97041.78
2022-10-11T17:33:28.799Z,97498.91
2022-10-11T17:35:59.502Z,97512.47
2022-10-11T17:38:27.909Z,97543.66
2022-10-11T17:41:01.764Z,97537.28
2022-10-11T17:43:29.016Z,97540.09
2022-10-11T17:46:00.178Z,97543.66
2022-10-11T17:48:28.149Z,97549.25
2022-10-11T17:50:55.122Z,97548.47
2022-10-11T17:53:21.840Z,97547.69
2022-10-11T17:55:50.626Z,97482.94
2022-10-11T17:58:18.231Z,97546.09
2022-10-11T18:00:45.508Z,97558.50
2022-10-11T18:03:12.263Z,97479.75
2022-10-11T18:05:40.140Z,97298.34
2022-10-11T18:08:07.526Z,97542.91
2022-10-11T18:10:37.840Z,97442.16
2022-10-11T18:13:06.849Z,97555.69
2022-10-11T18:15:34.057Z,97526.91
2022-10-11T18:18:00.981Z,97501.34
2022-10-11T18:20:27.651Z,97518.53
2022-10-11T18:22:54.321Z,97538.09
2022-10-11T18:25:20.918Z,97484.56
2022-10-11T18:27:47.505Z,97545.31
2022-10-11T18:30:14.667Z,97552.06
2022-10-11T18:32:41.312Z,97526.09
2022-10-11T18:35:08.318Z,97420.13
2022-10-11T18:37:42.322Z,97486.06
2022-10-11T18:40:09.263Z,97540.78
2022-10-11T18:42:36.284Z,97464.47
2022-10-11T18:45:11.174Z,97542.06
2022-10-11T18:47:42.560Z,97547.69
2022-10-11T18:50:10.034Z,97558.47
2022-10-11T18:52:39.160Z,97552.47
2022-10-11T18:55:08.421Z,97550.09
2022-10-11T18:57:35.072Z,97493.25
2022-10-11T19:00:11.747Z,97532.09
2022-10-11T19:02:48.840Z,97552.13
2022-10-11T19:05:15.639Z,97561.28
2022-10-11T19:07:44.573Z,97565.28
2022-10-11T19:10:11.234Z,97561.28
2022-10-11T19:12:37.905Z,97478.78
2022-10-11T19:15:04.982Z,97501.16
2022-10-11T19:17:31.679Z,97523.56
2022-10-11T19:19:59.583Z,97562.00
2022-10-11T19:22:26.575Z,97580.34
2022-10-11T19:24:53.182Z,97570.84
2022-10-11T19:27:19.739Z,97566.06
2022-10-11T19:29:46.382Z,97572.84
2022-10-11T19:32:13.036Z,97562.06
2022-10-11T19:34:39.613Z,97568.47
2022-10-11T19:37:06.283Z,97580.47
2022-10-11T19:39:32.905Z,97574.09
2022-10-11T19:42:00.349Z,97482.00
2022-10-11T19:44:27.005Z,97563.25
2022-10-11T19:46:53.679Z,97577.25
2022-10-11T19:49:25.343Z,97571.94
2022-10-11T19:51:55.633Z,97498.53
2022-10-11T19:54:22.964Z,97574.44
2022-10-11T19:56:49.584Z,97583.31
2022-10-11T19:59:16.886Z,97590.59
2022-10-11T20:01:52.301Z,97582.25
2022-10-11T20:04:51.101Z,97493.06
2022-10-11T20:07:07.632Z,97553.06
2022-10-11T20:09:34.294Z,97520.69
2022-10-11T20:12:00.866Z,97572.34
2022-10-11T20:14:27.492Z,97556.34
2022-10-11T20:16:54.165Z,97592.44
2022-10-11T20:19:26.184Z,97496.00
2022-10-11T20:21:56.017Z,97592.44
2022-10-11T20:24:22.600Z,97582.84
2022-10-11T20:26:49.278Z,97520.38
2022-10-11T20:29:15.846Z,97294.88
2022-10-11T20:31:42.898Z,97557.56
2022-10-11T20:34:10.379Z,97582.69
2022-10-11T20:36:37.609Z,97588.28
2022-10-11T20:39:05.880Z,97589.97
2022-10-11T20:41:39.845Z,97241.25
2022-10-11T20:44:08.843Z,97599.56
2022-10-11T20:46:39.163Z,97587.97
2022-10-11T20:49:09.329Z,97586.63
2022-10-11T20:51:37.737Z,97480.81
2022-10-11T20:54:05.132Z,97586.47
2022-10-11T20:56:32.424Z,97555.97
2022-10-11T20:58:59.306Z,97507.53
2022-10-11T21:01:31.793Z,97498.31
2022-10-11T21:04:00.067Z,97588.75
2022-10-11T21:06:28.432Z,97592.78
2022-10-11T21:08:56.495Z,97585.53
2022-10-11T21:11:33.442Z,97587.94
2022-10-11T21:14:03.009Z,97596.66
2022-10-11T21:16:30.032Z,97607.31
2022-10-11T21:18:58.464Z,97500.97
2022-10-11T21:21:26.092Z,97532.22
2022-10-11T21:23:57.522Z,97591.97
2022-10-11T21:26:24.875Z,97592.25
2022-10-11T21:28:51.565Z,97596.34
2022-10-11T21:31:20.181Z,97551.41
2022-10-11T21:33:46.995Z,97591.31
2022-10-11T21:36:22.350Z,97537.19
2022-10-11T21:38:50.540Z,97580.94
2022-10-11T21:41:19.973Z,97588.91
2022-10-11T21:43:47.753Z,97600.91
2022-10-11T21:46:21.435Z,97595.78
2022-10-11T21:48:50.019Z,97588.22
2022-10-11T21:51:23.585Z,97597.00
2022-10-11T21:53:50.486Z,97597.94
2022-10-11T21:56:17.562Z,97595.75
2022-10-11T21:58:47.786Z,97605.97
2022-10-11T22:01:14.775Z,97446.09
2022-10-11T22:03:41.538Z,97511.31
2022-10-11T22:06:08.583Z,97595.47
2022-10-11T22:08:35.257Z,97322.59
2022-10-11T22:11:01.987Z,97584.41
2022-10-11T22:13:31.176Z,97589.34
2022-10-11T22:15:57.838Z,97588.00
2022-10-11T22:18:25.108Z,97588.78
2022-10-11T22:20:51.777Z,97490.06
2022-10-11T22:23:19.220Z,97590.84
2022-10-11T22:25:45.944Z,97588.44
2022-10-11T22:28:13.083Z,97588.72
2022-10-11T22:30:39.758Z,97592.19
2022-10-11T22:33:06.652Z,97509.44
2022-10-11T22:35:37.455Z,97596.16
2022-10-11T22:38:06.116Z,97599.72
2022-10-11T22:40:32.930Z,97591.59
2022-10-11T22:42:59.456Z,97591.41
2022-10-11T22:45:26.010Z,97591.59
2022-10-11T22:47:52.577Z,97462.31
2022-10-11T22:50:19.330Z,97593.72
2022-10-11T22:52:45.910Z,97582.47
2022-10-11T22:55:19.006Z,97584.09
2022-10-11T22:57:46.667Z,97584.25
2022-10-11T23:00:13.717Z,97586.19
2022-10-11T23:02:40.330Z,97476.13
2022-10-11T23:05:07.171Z,97588.84
2022-10-11T23:07:33.917Z,97559.38
2022-10-11T23:10:00.952Z,97578.69
2022-10-11T23:12:27.497Z,97584.31
2022-10-11T23:14:54.130Z,97442.59
2022-10-11T23:17:20.791Z,97581.63
2022-10-11T23:19:47.458Z,97546.44
2022-10-11T23:22:14.417Z,97582.94
2022-10-11T23:24:40.998Z,97600.50
2022-10-11T23:27:08.076Z,97576.09
2022-10-11T23:29:34.674Z,97583.75
2022-10-11T23:32:01.327Z,97572.63
2022-10-11T23:34:27.928Z,97476.47
2022-10-11T23:36:54.502Z,97365.22
2022-10-11T23:39:21.306Z,97577.03
2022-10-11T23:41:47.892Z,97579.50
2022-10-11T23:44:14.489Z,97577.72
2022-10-11T23:46:41.078Z,97575.78
2022-10-11T23:49:07.614Z,97490.41
2022-10-11T23:51:34.195Z,97520.44
2022-10-11T23:54:00.749Z,97481.53
2022-10-11T23:56:27.387Z,97552.28
2022-10-11T23:58:54.118Z,97481.81
